createdAt,value
2023-10-30T00:00:45.862Z,99363.63
2023-10-30T00:03:05.086Z,99364.44
2023-10-30T00:04:58.237Z,99359.41
2023-10-30T00:06:51.180Z,99358.23
2023-10-30T00:08:44.233Z,99357.62
2023-10-30T00:10:37.803Z,99359.38
2023-10-30T00:12:30.900Z,99355.60
2023-10-30T00:14:24.204Z,99348.17
2023-10-30T00:16:17.586Z,99353.04
2023-10-30T00:18:10.672Z,99353.20
2023-10-30T00:20:05.114Z,99360.09
2023-10-30T00:21:58.145Z,99364.80
2023-10-30T00:23:52.015Z,99361.55
2023-10-30T00:25:45.066Z,99361.79
2023-10-30T00:27:38.281Z,99358.77
2023-10-30T00:29:32.396Z,99371.46
2023-10-30T00:31:27.440Z,99375.79
2023-10-30T00:33:20.987Z,99375.23
2023-10-30T00:35:14.218Z,99375.61
2023-10-30T00:37:07.568Z,99373.59
2023-10-30T00:39:00.824Z,99367.94
2023-10-30T00:40:55.112Z,99374.27
2023-10-30T00:42:48.155Z,99378.05
2023-10-30T00:44:41.411Z,99383.31
2023-10-30T00:46:34.426Z,99384.62
2023-10-30T00:48:27.429Z,99382.95
2023-10-30T00:50:20.763Z,99390.70
2023-10-30T00:52:13.816Z,99395.48
2023-10-30T00:54:07.067Z,99393.63
2023-10-30T00:56:00.222Z,99388.46
2023-10-30T00:57:53.694Z,99391.18
2023-10-30T00:59:46.747Z,99396.85
2023-10-30T01:01:39.964Z,99399.30
2023-10-30T01:03:33.208Z,99398.90
2023-10-30T01:05:26.625Z,99401.55
2023-10-30T01:07:20.578Z,99404.34
2023-10-30T01:09:13.954Z,99399.89
2023-10-30T01:11:06.982Z,99408.06
2023-10-30T01:12:59.978Z,99410.51
2023-10-30T01:14:54.158Z,99406.02
2023-10-30T01:16:47.310Z,99400.16
2023-10-30T01:18:40.386Z,99400.80
2023-10-30T01:20:39.451Z,99404.88
2023-10-30T01:22:32.455Z,99396.40
2023-10-30T01:24:25.489Z,99397.16
2023-10-30T01:26:18.557Z,99398.41
2023-10-30T01:28:11.606Z,99402.27
2023-10-30T01:30:07.047Z,99410.91
2023-10-30T01:32:00.214Z,99416.62
2023-10-30T01:33:53.274Z,99410.86
2023-10-30T01:35:46.674Z,99419.32
2023-10-30T01:37:39.727Z,99417.88
2023-10-30T01:39:32.943Z,99413.76
2023-10-30T01:41:27.200Z,99421.55
2023-10-30T01:43:33.963Z,99411.42
2023-10-30T01:45:27.117Z,99407.90
2023-10-30T01:47:20.183Z,99412.96
2023-10-30T01:49:13.184Z,99420.33
2023-10-30T01:51:07.915Z,99428.23
2023-10-30T01:53:01.540Z,99431.65
2023-10-30T01:54:54.701Z,99432.04
2023-10-30T01:56:47.951Z,99422.70
2023-10-30T01:58:41.104Z,99424.71
2023-10-30T02:00:34.211Z,99436.52
2023-10-30T02:02:31.630Z,99451.92
2023-10-30T02:04:26.444Z,99454.77
2023-10-30T02:06:19.448Z,99440.08
2023-10-30T02:08:13.855Z,99437.41
2023-10-30T02:10:08.102Z,99444.58
2023-10-30T02:12:01.193Z,99446.66
2023-10-30T02:13:57.979Z,99447.89
2023-10-30T02:15:51.151Z,99455.60
2023-10-30T02:17:45.223Z,99462.05
2023-10-30T02:19:38.688Z,99465.40
2023-10-30T02:21:32.369Z,99470.43
2023-10-30T02:23:25.354Z,99468.25
2023-10-30T02:25:23.928Z,99465.30
2023-10-30T02:27:16.965Z,99456.80
2023-10-30T02:29:11.108Z,99461.57
2023-10-30T02:31:04.263Z,99457.11
2023-10-30T02:32:57.467Z,99461.34
2023-10-30T02:34:50.673Z,99458.94
2023-10-30T02:36:43.666Z,99453.75
2023-10-30T02:38:36.892Z,99455.15
2023-10-30T02:40:31.051Z,99459.34
2023-10-30T02:42:25.674Z,99459.39
2023-10-30T02:44:18.892Z,99460.46
2023-10-30T02:46:12.355Z,99460.45
2023-10-30T02:48:06.029Z,99460.42
2023-10-30T02:49:59.376Z,99461.17
2023-10-30T02:51:52.941Z,99459.64
2023-10-30T02:53:45.985Z,99463.28
2023-10-30T02:55:39.552Z,99462.55
2023-10-30T02:57:32.682Z,99456.48
2023-10-30T02:59:25.763Z,99462.24
2023-10-30T03:01:19.171Z,99468.87
2023-10-30T03:03:12.603Z,99474.82
2023-10-30T03:05:06.801Z,99470.47
2023-10-30T03:07:00.209Z,99471.50
2023-10-30T03:08:53.302Z,99468.48
2023-10-30T03:10:48.767Z,99474.02
2023-10-30T03:12:41.867Z,99485.13
2023-10-30T03:14:35.630Z,99486.33
2023-10-30T03:16:28.750Z,99484.84
2023-10-30T03:18:21.827Z,99492.57
2023-10-30T03:20:15.660Z,99494.70
2023-10-30T03:22:09.127Z,99488.08
2023-10-30T03:24:02.826Z,99487.23
2023-10-30T03:25:55.934Z,99492.34
2023-10-30T03:27:48.942Z,99500.92
2023-10-30T03:29:42.241Z,99499.31
2023-10-30T03:31:35.318Z,99502.45
2023-10-30T03:33:28.457Z,99508.60
2023-10-30T03:35:22.007Z,99504.02
2023-10-30T03:37:15.103Z,99500.59
2023-10-30T03:39:08.113Z,99504.29
2023-10-30T03:41:01.672Z,99502.80
2023-10-30T03:42:54.728Z,99500.15
2023-10-30T03:44:48.080Z,99503.00
2023-10-30T03:46:42.713Z,99500.23
2023-10-30T03:48:37.112Z,99506.23
2023-10-30T03:50:30.209Z,99514.80
2023-10-30T03:52:23.251Z,99510.72
2023-10-30T03:54:16.324Z,99505.63
2023-10-30T03:56:09.674Z,99507.71
2023-10-30T03:58:04.859Z,99523.42
2023-10-30T03:59:58.032Z,99524.25
2023-10-30T04:01:51.263Z,99526.77
2023-10-30T04:03:44.577Z,99542.52
2023-10-30T04:05:39.524Z,99539.06
2023-10-30T04:07:32.575Z,99526.70
2023-10-30T04:09:26.098Z,99518.29
2023-10-30T04:11:22.052Z,99522.05
2023-10-30T04:13:15.716Z,99527.41
2023-10-30T04:15:09.085Z,99517.23
2023-10-30T04:17:04.416Z,99508.27
2023-10-30T04:18:58.658Z,99511.98
2023-10-30T04:20:51.644Z,99528.30
2023-10-30T04:22:44.656Z,99529.33
2023-10-30T04:24:37.629Z,99533.36
2023-10-30T04:26:31.375Z,99531.70
2023-10-30T04:28:24.936Z,99523.89
2023-10-30T04:30:17.908Z,99528.38
2023-10-30T04:32:11.048Z,99536.96
2023-10-30T04:34:04.808Z,99530.50
2023-10-30T04:36:02.363Z,99524.32
2023-10-30T04:37:55.412Z,99519.45
2023-10-30T04:39:48.712Z,99519.95
2023-10-30T04:41:42.124Z,99526.95
2023-10-30T04:43:35.689Z,99530.52
2023-10-30T04:45:28.774Z,99527.30
2023-10-30T04:47:21.894Z,99531.26
2023-10-30T04:49:14.942Z,99549.23
2023-10-30T04:51:07.894Z,99552.38
2023-10-30T04:53:01.046Z,99545.52
2023-10-30T04:54:54.157Z,99543.96
2023-10-30T04:56:47.350Z,99544.01
2023-10-30T04:58:40.399Z,99540.27
2023-10-30T05:00:33.467Z,99539.11
2023-10-30T05:02:26.478Z,99531.17
2023-10-30T05:04:20.134Z,99530.98
2023-10-30T05:06:13.263Z,99536.10
2023-10-30T05:08:06.582Z,99534.42
2023-10-30T05:09:59.625Z,99544.95
2023-10-30T05:11:52.674Z,99544.89
2023-10-30T05:13:45.725Z,99535.30
2023-10-30T05:15:38.802Z,99531.20
2023-10-30T05:17:32.054Z,99529.70
2023-10-30T05:19:25.194Z,99539.31
2023-10-30T05:21:18.266Z,99542.02
2023-10-30T05:23:11.296Z,99550.60
2023-10-30T05:25:04.966Z,99565.44
2023-10-30T05:26:58.308Z,99581.10
2023-10-30T05:28:51.376Z,99586.05
2023-10-30T05:30:44.535Z,99590.49
2023-10-30T05:32:37.686Z,99588.52
2023-10-30T05:34:32.510Z,99594.95
2023-10-30T05:36:25.994Z,99594.34
2023-10-30T05:38:19.837Z,99602.50
2023-10-30T05:40:14.166Z,99603.31
2023-10-30T05:42:07.630Z,99591.45
2023-10-30T05:44:00.576Z,99590.35
2023-10-30T05:45:53.715Z,99582.13
2023-10-30T05:47:47.046Z,99580.30
2023-10-30T05:49:40.545Z,99584.13
2023-10-30T05:51:33.674Z,99589.44
2023-10-30T05:53:26.749Z,99588.45
2023-10-30T05:55:19.742Z,99592.32
2023-10-30T05:57:15.308Z,99595.63
2023-10-30T05:59:11.535Z,99589.58
2023-10-30T06:01:05.738Z,99577.05
2023-10-30T06:02:59.006Z,99572.93
2023-10-30T06:04:52.071Z,99555.17
2023-10-30T06:06:45.091Z,99546.93
2023-10-30T06:08:38.325Z,99549.65
2023-10-30T06:10:31.324Z,99560.95
2023-10-30T06:12:24.470Z,99558.19
2023-10-30T06:14:19.117Z,99552.77
2023-10-30T06:16:17.768Z,99567.48
2023-10-30T06:18:10.959Z,99579.29
2023-10-30T06:20:04.995Z,99579.41
2023-10-30T06:21:58.082Z,99572.54
2023-10-30T06:23:51.589Z,99559.08
2023-10-30T06:25:45.986Z,99558.60
2023-10-30T06:27:41.687Z,99574.33
2023-10-30T06:29:34.790Z,99581.48
2023-10-30T06:31:28.250Z,99590.91
2023-10-30T06:33:21.463Z,99604.54
2023-10-30T06:35:14.659Z,99608.21
2023-10-30T06:37:07.822Z,99606.28
2023-10-30T06:39:02.646Z,99611.31
2023-10-30T06:40:55.644Z,99618.92
2023-10-30T06:42:48.778Z,99634.93
2023-10-30T06:44:41.952Z,99631.83
2023-10-30T06:46:35.031Z,99622.70
2023-10-30T06:48:28.184Z,99622.63
2023-10-30T06:50:21.518Z,99626.49
2023-10-30T06:52:14.564Z,99621.76
2023-10-30T06:54:12.097Z,99619.98
2023-10-30T06:56:05.478Z,99615.77
2023-10-30T06:57:58.438Z,99612.27
2023-10-30T06:59:54.446Z,99607.52
2023-10-30T07:01:48.573Z,99610.55
2023-10-30T07:03:42.084Z,99612.36
2023-10-30T07:05:35.546Z,99606.23
2023-10-30T07:07:29.000Z,99608.58
2023-10-30T07:09:22.280Z,99613.15
2023-10-30T07:11:15.310Z,99616.69
2023-10-30T07:13:08.669Z,99614.64
2023-10-30T07:15:02.024Z,99622.52
2023-10-30T07:17:04.516Z,99630.42
2023-10-30T07:18:59.601Z,99646.21
2023-10-30T07:20:52.645Z,99654.45
2023-10-30T07:22:45.595Z,99652.29
2023-10-30T07:24:39.219Z,99646.98
2023-10-30T07:26:32.308Z,99650.81
2023-10-30T07:28:25.381Z,99650.70
2023-10-30T07:30:18.656Z,99659.05
2023-10-30T07:32:11.869Z,99653.33
2023-10-30T07:34:05.125Z,99658.92
2023-10-30T07:36:02.484Z,99665.72
2023-10-30T07:37:55.530Z,99666.06
2023-10-30T07:39:48.596Z,99662.06
2023-10-30T07:41:41.626Z,99673.70
2023-10-30T07:43:36.316Z,99673.60
2023-10-30T07:45:29.445Z,99684.55
2023-10-30T07:47:33.103Z,99683.30
2023-10-30T07:49:35.543Z,99686.91
2023-10-30T07:51:28.504Z,99671.64
2023-10-30T07:53:21.543Z,99675.04
2023-10-30T07:55:14.689Z,99676.76
2023-10-30T07:57:09.650Z,99678.35
2023-10-30T07:59:02.841Z,99676.30
2023-10-30T08:00:58.901Z,99674.23
2023-10-30T08:02:52.606Z,99668.02
2023-10-30T08:04:46.097Z,99665.83
2023-10-30T08:06:39.158Z,99668.85
2023-10-30T08:08:32.195Z,99648.77
2023-10-30T08:10:25.399Z,99649.75
2023-10-30T08:12:18.434Z,99657.64
2023-10-30T08:14:11.445Z,99657.00
2023-10-30T08:16:06.209Z,99658.19
2023-10-30T08:17:59.414Z,99656.86
2023-10-30T08:19:52.448Z,99660.61
2023-10-30T08:21:45.864Z,99667.18
2023-10-30T08:23:39.049Z,99660.96
2023-10-30T08:25:32.371Z,99649.05
2023-10-30T08:27:25.479Z,99652.42
2023-10-30T08:29:18.512Z,99661.77
2023-10-30T08:31:12.084Z,99659.80
2023-10-30T08:33:05.601Z,99659.30
2023-10-30T08:35:02.994Z,99663.80
2023-10-30T08:36:56.076Z,99672.25
2023-10-30T08:38:49.309Z,99671.40
2023-10-30T08:40:43.121Z,99668.75
2023-10-30T08:42:36.596Z,99661.40
2023-10-30T08:44:31.317Z,99661.57
2023-10-30T08:46:24.517Z,99665.44
2023-10-30T08:48:20.130Z,99676.84
2023-10-30T08:50:13.846Z,99681.55
2023-10-30T08:52:07.034Z,99682.13
2023-10-30T08:54:00.058Z,99681.25
2023-10-30T08:55:53.096Z,99682.25
2023-10-30T08:57:47.125Z,99682.33
2023-10-30T08:59:42.554Z,99698.05
2023-10-30T09:01:38.090Z,99697.38
2023-10-30T09:03:31.916Z,99695.09
2023-10-30T09:05:25.673Z,99704.60
2023-10-30T09:07:19.234Z,99712.74
2023-10-30T09:09:13.464Z,99711.17
2023-10-30T09:11:06.525Z,99707.90
2023-10-30T09:12:59.794Z,99708.18
2023-10-30T09:14:54.158Z,99714.99
2023-10-30T09:16:47.283Z,99718.15
2023-10-30T09:18:40.398Z,99716.61
2023-10-30T09:20:33.506Z,99723.73
2023-10-30T09:22:27.739Z,99727.27
2023-10-30T09:24:22.311Z,99734.33
2023-10-30T09:26:15.677Z,99721.25
2023-10-30T09:28:09.087Z,99714.21
2023-10-30T09:30:09.715Z,99713.44
2023-10-30T09:32:04.817Z,99723.33
2023-10-30T09:33:59.152Z,99726.67
2023-10-30T09:35:52.297Z,99724.84
2023-10-30T09:37:45.603Z,99732.02
2023-10-30T09:39:39.121Z,99729.89
2023-10-30T09:41:37.645Z,99732.19
2023-10-30T09:43:31.354Z,99735.71
2023-10-30T09:45:26.856Z,99730.59
2023-10-30T09:47:22.681Z,99732.14
2023-10-30T09:49:17.169Z,99728.43
2023-10-30T09:51:11.600Z,99730.79
2023-10-30T09:53:06.209Z,99728.82
2023-10-30T09:55:00.825Z,99732.70
2023-10-30T09:56:55.228Z,99738.19
2023-10-30T09:58:49.946Z,99738.20
2023-10-30T10:00:47.980Z,99740.39
2023-10-30T10:02:44.814Z,99744.38
2023-10-30T10:04:42.466Z,99741.80
2023-10-30T10:06:35.940Z,99737.64
2023-10-30T10:08:29.953Z,99726.66
2023-10-30T10:10:23.121Z,99722.77
2023-10-30T10:12:22.007Z,99722.79
2023-10-30T10:14:21.297Z,99724.48
2023-10-30T10:16:14.505Z,99720.15
2023-10-30T10:18:28.451Z,99717.88
2023-10-30T10:20:23.444Z,99722.01
2023-10-30T10:22:31.591Z,99719.56
2023-10-30T10:24:38.285Z,99718.55
2023-10-30T10:26:31.401Z,99713.95
2023-10-30T10:28:25.784Z,99709.20
2023-10-30T10:30:24.632Z,99714.77
2023-10-30T10:32:17.723Z,99710.84
2023-10-30T10:34:10.944Z,99706.81
2023-10-30T10:36:06.098Z,99703.27
2023-10-30T10:38:08.722Z,99703.80
2023-10-30T10:40:03.694Z,99705.46
2023-10-30T10:41:57.516Z,99704.64
2023-10-30T10:43:51.791Z,99697.08
2023-10-30T10:45:46.949Z,99693.69
2023-10-30T10:47:40.090Z,99693.34
2023-10-30T10:49:33.305Z,99697.58
2023-10-30T10:51:42.452Z,99697.63
2023-10-30T10:53:37.104Z,99699.80
2023-10-30T10:55:33.069Z,99689.41
2023-10-30T10:57:29.676Z,99679.15
2023-10-30T10:59:27.021Z,99667.75
2023-10-30T11:01:22.333Z,99659.66
2023-10-30T11:03:16.666Z,99663.30
2023-10-30T11:05:10.782Z,99663.23
2023-10-30T11:07:09.370Z,99672.40
2023-10-30T11:09:16.056Z,99673.46
2023-10-30T11:11:22.102Z,99674.77
2023-10-30T11:13:30.499Z,99673.94
2023-10-30T11:15:36.157Z,99671.25
2023-10-30T11:17:30.661Z,99665.89
2023-10-30T11:19:24.402Z,99663.58
2023-10-30T11:21:17.859Z,99667.95
2023-10-30T11:23:11.317Z,99666.73
2023-10-30T11:25:06.213Z,99666.48
2023-10-30T11:27:00.713Z,99660.41
2023-10-30T11:28:54.978Z,99654.42
2023-10-30T11:30:51.228Z,99656.58
2023-10-30T11:32:54.162Z,99659.51
2023-10-30T11:34:48.448Z,99656.70
2023-10-30T11:36:42.731Z,99659.14
2023-10-30T11:38:56.030Z,99669.88
2023-10-30T11:41:05.604Z,99674.27
2023-10-30T11:42:58.778Z,99679.14
2023-10-30T11:44:53.141Z,99684.74
2023-10-30T11:46:48.622Z,99692.33
2023-10-30T11:48:42.028Z,99694.84
2023-10-30T11:50:44.663Z,99689.48
2023-10-30T11:52:39.593Z,99687.52
2023-10-30T11:54:34.147Z,99683.26
2023-10-30T11:56:28.134Z,99682.86
2023-10-30T11:58:21.495Z,99683.57
2023-10-30T12:00:15.162Z,99683.04
2023-10-30T12:02:09.026Z,99678.86
2023-10-30T12:04:04.520Z,99678.80
2023-10-30T12:05:59.152Z,99675.29
2023-10-30T12:07:52.280Z,99675.89
2023-10-30T12:09:45.340Z,99675.38
2023-10-30T12:11:38.493Z,99672.56
2023-10-30T12:13:31.889Z,99664.29
2023-10-30T12:15:27.163Z,99665.25
2023-10-30T12:17:20.196Z,99661.73
2023-10-30T12:19:13.863Z,99654.42
2023-10-30T12:21:07.632Z,99654.52
2023-10-30T12:23:00.911Z,99653.86
2023-10-30T12:24:54.807Z,99654.47
2023-10-30T12:26:49.243Z,99648.55
2023-10-30T12:28:42.384Z,99643.20
2023-10-30T12:30:36.600Z,99643.73
2023-10-30T12:32:32.696Z,99642.85
2023-10-30T12:34:25.945Z,99638.33
2023-10-30T12:36:31.608Z,99633.77
2023-10-30T12:38:24.637Z,99628.65
2023-10-30T12:40:17.710Z,99627.68
2023-10-30T12:42:12.578Z,99629.02
2023-10-30T12:44:05.530Z,99630.84
2023-10-30T12:45:58.564Z,99630.77
2023-10-30T12:47:52.165Z,99640.67
2023-10-30T12:49:45.404Z,99646.89
2023-10-30T12:51:39.796Z,99652.05
2023-10-30T12:53:32.960Z,99646.88
2023-10-30T12:55:29.468Z,99648.13
2023-10-30T12:57:23.073Z,99649.16
2023-10-30T12:59:16.386Z,99648.88
2023-10-30T13:01:11.464Z,99647.59
2023-10-30T13:03:04.832Z,99652.69
2023-10-30T13:04:59.128Z,99659.52
2023-10-30T13:06:52.340Z,99661.56
2023-10-30T13:08:46.473Z,99660.61
2023-10-30T13:10:39.567Z,99661.85
2023-10-30T13:12:34.308Z,99661.05
2023-10-30T13:14:27.356Z,99663.23
2023-10-30T13:16:21.564Z,99654.71
2023-10-30T13:18:18.773Z,99644.61
2023-10-30T13:20:20.177Z,99635.77
2023-10-30T13:22:13.264Z,99636.17
2023-10-30T13:24:10.273Z,99637.90
2023-10-30T13:26:07.816Z,99638.08
2023-10-30T13:28:03.746Z,99640.95
2023-10-30T13:29:59.087Z,99640.36
2023-10-30T13:31:55.457Z,99644.29
2023-10-30T13:33:51.208Z,99639.58
2023-10-30T13:35:49.221Z,99639.48
2023-10-30T13:37:44.935Z,99637.48
2023-10-30T13:39:43.132Z,99644.42
2023-10-30T13:41:40.274Z,99639.94
2023-10-30T13:43:38.098Z,99639.77
2023-10-30T13:45:35.106Z,99634.55
2023-10-30T13:47:33.125Z,99632.33
2023-10-30T13:49:29.493Z,99623.95
2023-10-30T13:51:26.741Z,99616.77
2023-10-30T13:53:23.842Z,99612.09
2023-10-30T13:55:20.621Z,99608.67
2023-10-30T13:57:18.343Z,99617.46
2023-10-30T13:59:14.130Z,99617.90
2023-10-30T14:01:10.484Z,99618.64
2023-10-30T14:03:08.563Z,99625.47
2023-10-30T14:05:05.315Z,99624.66
2023-10-30T14:07:02.824Z,99621.78
2023-10-30T14:08:58.865Z,99618.36
2023-10-30T14:10:55.480Z,99619.40
2023-10-30T14:12:51.811Z,99616.27
2023-10-30T14:14:48.897Z,99616.70
2023-10-30T14:16:46.518Z,99622.17
2023-10-30T14:18:42.797Z,99617.47
2023-10-30T14:20:38.802Z,99623.60
2023-10-30T14:22:35.371Z,99619.23
2023-10-30T14:24:32.495Z,99622.06
2023-10-30T14:26:28.026Z,99619.05
2023-10-30T14:28:22.882Z,99617.20
2023-10-30T14:30:18.931Z,99616.90
2023-10-30T14:32:16.545Z,99614.77
2023-10-30T14:34:12.613Z,99611.75
2023-10-30T14:36:09.849Z,99610.31
2023-10-30T14:38:05.997Z,99607.34
2023-10-30T14:40:01.848Z,99602.89
2023-10-30T14:41:57.677Z,99606.08
2023-10-30T14:43:51.983Z,99606.59
2023-10-30T14:45:48.981Z,99612.85
2023-10-30T14:47:44.912Z,99608.84
2023-10-30T14:49:43.202Z,99608.46
2023-10-30T14:51:39.832Z,99609.88
2023-10-30T14:53:37.488Z,99608.23
2023-10-30T14:55:34.333Z,99606.84
2023-10-30T14:57:31.689Z,99604.27
2023-10-30T14:59:25.992Z,99608.98
2023-10-30T15:01:22.279Z,99615.23
2023-10-30T15:03:18.945Z,99619.07
2023-10-30T15:05:13.960Z,99619.48
2023-10-30T15:07:12.452Z,99622.33
2023-10-30T15:09:10.822Z,99625.52
2023-10-30T15:11:12.846Z,99631.45
2023-10-30T15:13:08.348Z,99630.39
2023-10-30T15:15:05.787Z,99626.95
2023-10-30T15:17:01.982Z,99629.16
2023-10-30T15:18:58.354Z,99626.98
2023-10-30T15:20:55.457Z,99628.86
2023-10-30T15:22:51.374Z,99630.81
2023-10-30T15:24:48.534Z,99628.02
2023-10-30T15:26:45.254Z,99621.33
2023-10-30T15:28:39.370Z,99625.35
2023-10-30T15:30:35.400Z,99627.87
2023-10-30T15:32:35.696Z,99631.55
2023-10-30T15:34:32.436Z,99631.60
2023-10-30T15:36:28.242Z,99631.80
2023-10-30T15:38:23.678Z,99628.86
2023-10-30T15:40:20.066Z,99628.94
2023-10-30T15:42:17.550Z,99629.34
2023-10-30T15:44:13.892Z,99628.48
2023-10-30T15:46:11.932Z,99626.08
2023-10-30T15:48:10.139Z,99625.15
2023-10-30T15:50:06.193Z,99622.80
2023-10-30T15:59:03.788Z,99600.26
2023-10-30T16:00:59.356Z,99601.02
2023-10-30T16:03:31.740Z,99602.77
2023-10-30T16:05:16.282Z,99604.23
2023-10-30T16:07:15.825Z,99602.77
2023-10-30T16:09:11.653Z,99602.25
2023-10-30T16:11:11.893Z,99600.43
2023-10-30T16:13:41.304Z,99597.20
2023-10-30T16:15:36.835Z,99595.20
2023-10-30T16:17:34.735Z,99597.34
2023-10-30T16:19:30.599Z,99597.36
2023-10-30T16:21:28.523Z,99595.64
2023-10-30T16:23:23.876Z,99595.90
2023-10-30T16:25:20.670Z,99594.75
2023-10-30T16:27:16.129Z,99593.81
2023-10-30T16:29:12.473Z,99592.05
2023-10-30T16:31:06.552Z,99599.21
2023-10-30T16:33:01.050Z,99600.31
2023-10-30T16:34:56.533Z,99601.95
2023-10-30T16:36:52.491Z,99602.62
2023-10-30T16:38:48.609Z,99605.70
2023-10-30T16:40:43.616Z,99605.79
2023-10-30T16:42:38.246Z,99604.46
2023-10-30T16:44:33.368Z,99600.03
2023-10-30T16:46:29.624Z,99597.95
2023-10-30T16:48:33.242Z,99597.11
2023-10-30T16:50:33.021Z,99598.95
2023-10-30T16:52:29.171Z,99603.67
2023-10-30T16:54:25.425Z,99600.31
2023-10-30T16:56:24.208Z,99598.15
2023-10-30T16:58:20.864Z,99595.99
2023-10-30T17:00:17.226Z,99595.09
2023-10-30T17:02:13.266Z,99603.23
2023-10-30T17:04:09.303Z,99611.14
2023-10-30T17:06:04.402Z,99599.63
2023-10-30T17:08:01.435Z,99593.10
2023-10-30T17:09:57.076Z,99588.36
2023-10-30T17:11:52.948Z,99589.06
2023-10-30T17:13:50.638Z,99592.67
2023-10-30T17:15:47.302Z,99587.24
2023-10-30T17:17:44.575Z,99588.64
2023-10-30T17:19:40.257Z,99588.52
2023-10-30T17:21:37.264Z,99584.19
2023-10-30T17:23:37.082Z,99584.84
2023-10-30T17:25:34.372Z,99575.84
2023-10-30T17:27:30.257Z,99573.54
2023-10-30T17:29:25.373Z,99576.80
2023-10-30T17:31:19.624Z,99576.47
2023-10-30T17:33:15.569Z,99576.25
2023-10-30T17:35:11.428Z,99570.98
2023-10-30T17:37:06.653Z,99562.67
2023-10-30T17:39:03.400Z,99560.89
2023-10-30T17:40:58.171Z,99556.21
2023-10-30T17:42:54.029Z,99549.73
2023-10-30T17:44:50.424Z,99548.14
2023-10-30T17:46:45.769Z,99545.77
2023-10-30T17:48:42.337Z,99541.54
2023-10-30T17:50:38.332Z,99533.05
2023-10-30T17:52:33.945Z,99527.67
2023-10-30T17:54:33.233Z,99524.66
2023-10-30T17:56:35.088Z,99521.00
2023-10-30T17:58:28.155Z,99519.42
2023-10-30T18:00:24.564Z,99513.63
2023-10-30T18:02:19.099Z,99516.21
2023-10-30T18:04:15.632Z,99517.91
2023-10-30T18:06:12.279Z,99518.85
2023-10-30T18:08:09.417Z,99518.37
2023-10-30T18:10:04.258Z,99519.90
2023-10-30T18:11:59.072Z,99520.90
2023-10-30T18:13:52.958Z,99521.83
2023-10-30T18:15:49.041Z,99525.38
2023-10-30T18:17:46.870Z,99524.36
2023-10-30T18:19:44.760Z,99518.77
2023-10-30T18:21:40.469Z,99519.48
2023-10-30T18:23:42.633Z,99515.10
2023-10-30T18:25:41.173Z,99508.69
2023-10-30T18:27:36.887Z,99504.02
2023-10-30T18:29:31.973Z,99501.33
2023-10-30T18:31:29.707Z,99501.58
2023-10-30T18:33:29.029Z,99495.94
2023-10-30T18:35:24.390Z,99492.45
2023-10-30T18:37:20.197Z,99489.50
2023-10-30T18:39:15.864Z,99491.21
2023-10-30T18:41:11.013Z,99492.79
2023-10-30T18:43:06.928Z,99489.81
2023-10-30T18:45:03.323Z,99480.16
2023-10-30T18:47:00.172Z,99478.61
2023-10-30T18:48:56.582Z,99473.80
2023-10-30T18:50:53.989Z,99476.17
2023-10-30T18:52:50.192Z,99477.36
2023-10-30T18:54:46.750Z,99474.95
2023-10-30T18:56:41.197Z,99467.95
2023-10-30T18:58:37.249Z,99460.45
2023-10-30T19:00:33.302Z,99459.83
2023-10-30T19:02:28.078Z,99453.57
2023-10-30T19:04:23.280Z,99450.46
2023-10-30T19:06:20.247Z,99440.98
2023-10-30T19:08:21.432Z,99439.67
2023-10-30T19:10:19.009Z,99440.66
2023-10-30T19:12:15.553Z,99440.50
2023-10-30T19:14:13.571Z,99436.90
2023-10-30T19:16:08.926Z,99438.94
2023-10-30T19:18:07.220Z,99443.21
2023-10-30T19:20:05.188Z,99444.30
2023-10-30T19:22:00.561Z,99445.07
2023-10-30T19:23:56.547Z,99449.11
2023-10-30T19:25:50.607Z,99444.64
2023-10-30T19:27:48.054Z,99441.46
2023-10-30T19:29:41.204Z,99433.65
2023-10-30T19:31:34.331Z,99429.25
2023-10-30T19:33:29.855Z,99428.45
2023-10-30T19:35:23.134Z,99425.28
2023-10-30T19:37:16.688Z,99420.64
2023-10-30T19:39:11.163Z,99416.44
2023-10-30T19:41:04.498Z,99410.58
2023-10-30T19:42:58.419Z,99408.43
2023-10-30T19:44:53.155Z,99401.20
2023-10-30T19:46:49.883Z,99398.41
2023-10-30T19:48:47.371Z,99393.91
2023-10-30T19:50:44.968Z,99382.59
2023-10-30T19:52:40.952Z,99379.63
2023-10-30T19:54:34.620Z,99372.77
2023-10-30T19:56:28.079Z,99365.29
2023-10-30T19:58:21.433Z,99358.83
2023-10-30T20:00:18.632Z,99353.90
2023-10-30T20:02:13.573Z,99340.84
2023-10-30T20:04:07.649Z,99332.91
2023-10-30T20:06:00.716Z,99328.27
2023-10-30T20:07:53.750Z,99324.39
2023-10-30T20:09:52.446Z,99315.27
2023-10-30T20:11:53.885Z,99309.64
2023-10-30T20:13:47.106Z,99306.86
2023-10-30T20:15:40.190Z,99304.19
2023-10-30T20:17:34.012Z,99299.94
2023-10-30T20:19:27.333Z,99298.42
2023-10-30T20:21:20.667Z,99300.52
2023-10-30T20:23:13.830Z,99300.46
2023-10-30T20:25:07.140Z,99297.85
2023-10-30T20:27:00.252Z,99296.03
2023-10-30T20:28:54.067Z,99289.44
2023-10-30T20:30:47.160Z,99285.11
2023-10-30T20:32:40.194Z,99281.13
2023-10-30T20:34:33.962Z,99278.98
2023-10-30T20:36:27.126Z,99274.11
2023-10-30T20:38:20.282Z,99272.52
2023-10-30T20:40:15.235Z,99273.89
2023-10-30T20:42:12.112Z,99267.80
2023-10-30T20:44:05.285Z,99266.48
2023-10-30T20:45:59.278Z,99264.95
2023-10-30T20:47:53.262Z,99266.20
2023-10-30T20:49:46.481Z,99261.10
2023-10-30T20:51:40.378Z,99258.35
2023-10-30T20:53:33.689Z,99255.48
2023-10-30T20:55:26.761Z,99251.17
2023-10-30T20:57:19.965Z,99253.56
2023-10-30T20:59:13.157Z,99251.34
2023-10-30T21:01:06.305Z,99251.61
2023-10-30T21:02:59.374Z,99252.40
2023-10-30T21:04:54.197Z,99247.52
2023-10-30T21:06:48.220Z,99239.46
2023-10-30T21:08:42.089Z,99234.86
2023-10-30T21:10:35.105Z,99228.02
2023-10-30T21:12:28.088Z,99221.83
2023-10-30T21:14:21.240Z,99216.66
2023-10-30T21:16:14.345Z,99211.66
2023-10-30T21:18:07.799Z,99208.27
2023-10-30T21:20:00.911Z,99196.88
2023-10-30T21:21:53.955Z,99195.11
2023-10-30T21:23:47.011Z,99190.73
2023-10-30T21:25:40.342Z,99192.73
2023-10-30T21:27:35.409Z,99188.08
2023-10-30T21:29:28.414Z,99181.60
2023-10-30T21:31:21.471Z,99177.87
2023-10-30T21:33:14.515Z,99169.52
2023-10-30T21:35:08.312Z,99170.70
2023-10-30T21:37:01.435Z,99166.66
2023-10-30T21:38:55.409Z,99161.73
2023-10-30T21:40:50.317Z,99163.63
2023-10-30T21:42:43.552Z,99160.83
2023-10-30T21:44:36.553Z,99158.58
2023-10-30T21:46:31.245Z,99157.80
2023-10-30T21:48:24.656Z,99158.39
2023-10-30T21:50:18.570Z,99158.26
2023-10-30T21:52:12.335Z,99162.48
2023-10-30T21:54:39.212Z,99166.39
2023-10-30T21:56:37.740Z,99166.31
2023-10-30T21:58:34.119Z,99162.15
2023-10-30T22:00:27.498Z,99157.19
2023-10-30T22:02:20.641Z,99162.16
2023-10-30T22:04:13.955Z,99159.20
2023-10-30T22:06:06.959Z,99154.98
2023-10-30T22:08:00.120Z,99148.97
2023-10-30T22:09:53.165Z,99145.91
2023-10-30T22:11:47.761Z,99146.37
2023-10-30T22:13:46.343Z,99140.96
2023-10-30T22:15:40.712Z,99131.02
2023-10-30T22:17:33.771Z,99120.06
2023-10-30T22:19:26.751Z,99117.02
2023-10-30T22:21:19.770Z,99109.54
2023-10-30T22:23:16.026Z,99102.41
2023-10-30T22:25:19.316Z,99098.45
2023-10-30T22:27:12.940Z,99099.43
2023-10-30T22:29:06.051Z,99099.45
2023-10-30T22:30:59.170Z,99092.21
2023-10-30T22:32:52.502Z,99085.70
2023-10-30T22:34:45.789Z,99080.86
2023-10-30T22:36:39.008Z,99080.27
2023-10-30T22:38:32.367Z,99076.15